Time;durP1;ratioP1;P1;durP2;ratioP2;P2;SDS_P1;SDS_P2;PMS_P1;PMS_P2;Temp;Humidity;BMP_temperature;BMP_pressure;BME280_temperature;BME280_humidity;BME280_pressure;Samples;Min_cycle;Max_cycle;Signal;HPM_P1;HPM_P2
2022/12/12 00:01:30;;;;;;;19.95;11.15;;;;;;;;;;5035218;28;20053;-90
2022/12/12 00:03:58;;;;;;;21.45;11.70;;;;;;;;;;5050358;28;20516;-91
2022/12/12 00:06:25;;;;;;;19.15;11.23;;;;;;;;;;5034490;28;20053;-90
2022/12/12 00:08:54;;;;;;;19.88;11.68;;;;;;;;;;5034462;28;20470;-91
2022/12/12 00:11:22;;;;;;;22.70;12.18;;;;;;;;;;5034690;28;20053;-91
2022/12/12 00:13:50;;;;;;;21.80;12.02;;;;;;;;;;5049914;28;20049;-91
2022/12/12 00:16:17;;;;;;;20.35;11.75;;;;;;;;;;5050406;28;20049;-91
2022/12/12 00:18:45;;;;;;;26.05;11.98;;;;;;;;;;5034554;28;20069;-91
2022/12/12 00:21:14;;;;;;;23.23;12.43;;;;;;;;;;5049949;28;20442;-90
2022/12/12 00:23:42;;;;;;;20.63;11.88;;;;;;;;;;5034302;28;20060;-91
2022/12/12 00:26:14;;;;;;;21.45;11.75;;;;;;;;;;5050048;28;20045;-90
2022/12/12 00:28:41;;;;;;;20.13;12.55;;;;;;;;;;5050091;28;20057;-90
2022/12/12 00:31:08;;;;;;;21.73;12.27;;;;;;;;;;5034025;28;20054;-90
2022/12/12 00:33:36;;;;;;;20.85;11.90;;;;;;;;;;5050217;28;20115;-90
2022/12/12 00:36:03;;;;;;;20.23;11.27;;;;;;;;;;5049711;28;20056;-90
2022/12/12 00:38:31;;;;;;;20.80;11.52;;;;;;;;;;5034057;28;20049;-90
2022/12/12 00:40:59;;;;;;;20.70;11.57;;;;;;;;;;5049746;28;20049;-90
2022/12/12 00:43:26;;;;;;;22.33;11.63;;;;;;;;;;5049765;28;20045;-89
2022/12/12 00:45:54;;;;;;;21.52;11.57;;;;;;;;;;5049243;28;20060;-89
2022/12/12 00:48:21;;;;;;;22.17;11.80;;;;;;;;;;5033895;28;20489;-90
2022/12/12 00:50:48;;;;;;;24.65;11.55;;;;;;;;;;5033848;28;20405;-89
2022/12/12 00:53:16;;;;;;;20.27;11.60;;;;;;;;;;5049775;28;20046;-89
2022/12/12 00:55:43;;;;;;;23.17;11.65;;;;;;;;;;5048837;28;20049;-90
2022/12/12 00:58:11;;;;;;;19.08;12.18;;;;;;;;;;5049491;28;20113;-90
2022/12/12 01:00:42;;;;;;;22.45;11.77;;;;;;;;;;5049043;28;20057;-89
2022/12/12 01:03:09;;;;;;;20.77;11.68;;;;;;;;;;5033911;28;20045;-90
2022/12/12 01:05:37;;;;;;;22.40;12.63;;;;;;;;;;5048923;28;20054;-90
2022/12/12 01:08:04;;;;;;;21.67;11.93;;;;;;;;;;5033612;28;20084;-90
2022/12/12 01:10:33;;;;;;;20.98;11.80;;;;;;;;;;5033688;28;20049;-90
2022/12/12 01:13:00;;;;;;;22.70;12.13;;;;;;;;;;5049122;28;20049;-90
2022/12/12 01:15:27;;;;;;;21.33;12.00;;;;;;;;;;5048457;28;20053;-90
2022/12/12 01:17:55;;;;;;;22.50;11.57;;;;;;;;;;5033807;28;20128;-89
2022/12/12 01:20:24;;;;;;;20.13;11.40;;;;;;;;;;5033309;28;20045;-89
2022/12/12 01:22:52;;;;;;;20.05;11.27;;;;;;;;;;5033733;28;20054;-89
2022/12/12 01:25:19;;;;;;;20.20;11.10;;;;;;;;;;5049464;28;20046;-89
2022/12/12 01:27:47;;;;;;;19.30;11.13;;;;;;;;;;5033546;28;20051;-89
2022/12/12 01:30:17;;;;;;;20.55;11.35;;;;;;;;;;5048916;28;20528;-90
2022/12/12 01:32:45;;;;;;;19.58;11.10;;;;;;;;;;5049208;28;20154;-90
2022/12/12 01:35:12;;;;;;;19.35;11.93;;;;;;;;;;5049104;28;20057;-90
2022/12/12 01:37:40;;;;;;;21.27;12.10;;;;;;;;;;5048937;28;20460;-90
2022/12/12 01:40:12;;;;;;;22.25;11.68;;;;;;;;;;5048952;28;20054;-89
2022/12/12 01:42:39;;;;;;;22.65;12.52;;;;;;;;;;5049138;28;20124;-90
2022/12/12 01:45:07;;;;;;;19.23;10.98;;;;;;;;;;5048624;28;20053;-90
2022/12/12 01:47:34;;;;;;;21.90;11.73;;;;;;;;;;5048970;28;20052;-90
2022/12/12 01:50:03;;;;;;;17.42;11.32;;;;;;;;;;5048775;28;20109;-90
2022/12/12 01:52:42;;;;;;;21.42;11.63;;;;;;;;;;5033268;28;20144;-90
2022/12/12 01:55:14;;;;;;;21.55;11.57;;;;;;;;;;5048555;28;20046;-89
2022/12/12 01:57:44;;;;;;;26.08;12.45;;;;;;;;;;5048659;28;20054;-90
2022/12/12 02:00:12;;;;;;;21.38;11.18;;;;;;;;;;5048604;28;20052;-90
2022/12/12 02:02:41;;;;;;;23.08;12.18;;;;;;;;;;5033071;28;20045;-90
2022/12/12 02:05:23;;;;;;;21.63;12.55;;;;;;;;;;5048462;28;20056;-90
2022/12/12 02:07:50;;;;;;;24.02;13.23;;;;;;;;;;5033106;28;20493;-90
2022/12/12 02:10:18;;;;;;;26.92;13.48;;;;;;;;;;5033047;28;20054;-90
2022/12/12 02:12:45;;;;;;;26.02;14.20;;;;;;;;;;5033256;28;20049;-90
2022/12/12 02:15:13;;;;;;;26.45;14.05;;;;;;;;;;5048669;28;20053;-90
2022/12/12 02:17:53;;;;;;;30.30;14.52;;;;;;;;;;5048703;28;20107;-90
2022/12/12 02:20:27;;;;;;;24.92;12.88;;;;;;;;;;5048688;28;20052;-90
2022/12/12 02:23:13;;;;;;;22.75;12.40;;;;;;;;;;5048560;28;20053;-89
2022/12/12 02:25:59;;;;;;;20.13;11.82;;;;;;;;;;5049564;28;20071;-90
2022/12/12 02:28:37;;;;;;;20.35;11.48;;;;;;;;;;5052187;28;20057;-90
2022/12/12 02:31:37;;;;;;;21.05;11.85;;;;;;;;;;5052196;28;20080;-90
2022/12/12 02:34:04;;;;;;;22.73;13.25;;;;;;;;;;5003621;28;20049;-90
2022/12/12 02:36:36;;;;;;;20.63;12.02;;;;;;;;;;5051831;28;20053;-90
2022/12/12 02:39:09;;;;;;;21.43;11.97;;;;;;;;;;5052315;28;20436;-90
2022/12/12 02:41:47;;;;;;;19.23;11.23;;;;;;;;;;5051895;28;20057;-90
2022/12/12 02:44:32;;;;;;;20.88;11.48;;;;;;;;;;5036290;28;20064;-90
2022/12/12 02:47:14;;;;;;;19.20;10.98;;;;;;;;;;5052118;28;20053;-90
2022/12/12 02:49:56;;;;;;;20.15;11.88;;;;;;;;;;5051606;28;20052;-90
2022/12/12 02:52:24;;;;;;;20.17;10.70;;;;;;;;;;5036409;28;20053;-90
2022/12/12 02:54:51;;;;;;;19.23;11.55;;;;;;;;;;5051485;28;20508;-90
2022/12/12 02:57:20;;;;;;;20.02;11.05;;;;;;;;;;5051601;28;20440;-90
2022/12/12 02:59:49;;;;;;;22.73;12.40;;;;;;;;;;5051610;28;20052;-90
2022/12/12 03:02:20;;;;;;;20.05;11.40;;;;;;;;;;5052016;28;20045;-90
2022/12/12 03:08:10;;;;;;;19.90;11.27;;;;;;;;;;5035630;28;20053;-90
2022/12/12 03:10:50;;;;;;;19.08;10.52;;;;;;;;;;5035801;28;20053;-90
2022/12/12 03:13:29;;;;;;;23.83;12.05;;;;;;;;;;5051423;28;20514;-90
2022/12/12 03:16:13;;;;;;;18.83;11.00;;;;;;;;;;5051088;28;20046;-90
2022/12/12 03:18:40;;;;;;;;;;;;;;;;;;5051709;28;20053;-90
2022/12/12 03:21:10;;;;;;;20.63;11.40;;;;;;;;;;5034435;28;20023;-90
2022/12/12 03:23:39;;;;;;;16.10;9.88;;;;;;;;;;5050859;28;20061;-90
2022/12/12 03:26:13;;;;;;;19.20;10.40;;;;;;;;;;5051158;28;20047;-90
2022/12/12 03:28:42;;;;;;;21.02;11.85;;;;;;;;;;5051123;28;20050;-90
2022/12/12 03:31:11;;;;;;;19.15;10.18;;;;;;;;;;5051162;28;20499;-90
2022/12/12 03:33:42;;;;;;;21.45;11.60;;;;;;;;;;5054171;28;20053;-90
2022/12/12 03:36:15;;;;;;;18.55;10.68;;;;;;;;;;5051945;28;20057;-90
2022/12/12 03:38:44;;;;;;;20.73;11.32;;;;;;;;;;5049112;28;20057;-90
2022/12/12 03:41:19;;;;;;;22.08;11.60;;;;;;;;;;5050841;28;20058;-90
2022/12/12 03:43:58;;;;;;;27.40;17.13;;;;;;;;;;5050885;28;20045;-90
2022/12/12 03:46:36;;;;;;;19.88;12.02;;;;;;;;;;5050668;28;20053;-90
2022/12/12 03:49:11;;;;;;;19.75;11.27;;;;;;;;;;5051062;28;20049;-89
2022/12/12 03:51:41;;;;;;;19.25;10.93;;;;;;;;;;5050251;28;20056;-90
2022/12/12 03:54:12;;;;;;;21.00;10.95;;;;;;;;;;5035380;28;20052;-90
2022/12/12 03:56:43;;;;;;;20.27;10.98;;;;;;;;;;5050595;28;20053;-89
2022/12/12 03:59:12;;;;;;;16.77;10.18;;;;;;;;;;5050566;28;20052;-90
2022/12/12 04:02:06;;;;;;;20.83;12.35;;;;;;;;;;5050781;28;20056;-90
2022/12/12 04:04:33;;;;;;;24.25;13.88;;;;;;;;;;5031921;28;20041;-89
2022/12/12 04:07:08;;;;;;;21.95;12.52;;;;;;;;;;5050446;28;20046;-90
2022/12/12 04:15:30;;;;;;;20.25;10.65;;;;;;;;;;5034859;28;20050;-90
2022/12/12 04:18:14;;;;;;;22.73;11.73;;;;;;;;;;5050228;28;20060;-90
2022/12/12 04:23:33;;;;;;;17.85;11.48;;;;;;;;;;5034102;28;20060;-90
2022/12/12 04:29:21;;;;;;;17.98;10.90;;;;;;;;;;5038662;28;20056;-90
2022/12/12 04:31:49;;;;;;;20.15;11.18;;;;;;;;;;5023498;28;20054;-90
2022/12/12 04:34:23;;;;;;;20.42;11.10;;;;;;;;;;5049867;28;20053;-89
2022/12/12 04:36:50;;;;;;;20.80;11.50;;;;;;;;;;5050244;28;20080;-90
2022/12/12 04:39:19;;;;;;;19.88;10.40;;;;;;;;;;5049730;28;20417;-90
2022/12/12 04:41:48;;;;;;;20.98;11.30;;;;;;;;;;5049388;28;20075;-90
2022/12/12 04:44:15;;;;;;;18.58;10.40;;;;;;;;;;5049619;28;20136;-90
2022/12/12 04:46:44;;;;;;;18.17;10.25;;;;;;;;;;5049734;28;20053;-90
2022/12/12 04:49:17;;;;;;;20.08;11.27;;;;;;;;;;5048800;28;20049;-90
2022/12/12 04:51:46;;;;;;;20.38;10.43;;;;;;;;;;5049655;28;20092;-89
2022/12/12 04:54:18;;;;;;;19.63;11.55;;;;;;;;;;5049440;28;20056;-90
2022/12/12 04:56:48;;;;;;;23.83;12.23;;;;;;;;;;5038797;28;20056;-91
2022/12/12 04:59:16;;;;;;;21.45;11.57;;;;;;;;;;5032997;28;20045;-90
2022/12/12 05:01:43;;;;;;;18.75;11.05;;;;;;;;;;5032775;28;20053;-90
2022/12/12 05:04:39;;;;;;;20.63;10.88;;;;;;;;;;5033106;28;20128;-90
2022/12/12 05:07:08;;;;;;;18.70;10.32;;;;;;;;;;5032635;28;20055;-91
2022/12/12 05:09:36;;;;;;;17.10;10.15;;;;;;;;;;5032846;28;20053;-91
2022/12/12 05:12:04;;;;;;;19.17;10.70;;;;;;;;;;5032652;28;20056;-90
2022/12/12 05:14:31;;;;;;;20.15;11.00;;;;;;;;;;5033508;28;20413;-90
2022/12/12 05:17:02;;;;;;;23.17;11.32;;;;;;;;;;5033297;28;20501;-89
2022/12/12 05:19:30;;;;;;;21.27;11.48;;;;;;;;;;5033308;28;20378;-90
2022/12/12 05:21:57;;;;;;;22.52;11.73;;;;;;;;;;5032788;28;20469;-90
2022/12/12 05:24:29;;;;;;;21.73;11.35;;;;;;;;;;5032625;28;20061;-90
2022/12/12 05:26:57;;;;;;;20.63;10.97;;;;;;;;;;5033802;28;20052;-90
2022/12/12 05:29:25;;;;;;;23.65;11.25;;;;;;;;;;5032801;28;20144;-90
2022/12/12 05:31:52;;;;;;;19.88;11.15;;;;;;;;;;5032631;28;20137;-90
2022/12/12 05:34:19;;;;;;;21.08;11.70;;;;;;;;;;5032700;28;20045;-90
2022/12/12 05:36:47;;;;;;;23.58;11.43;;;;;;;;;;5032437;28;20405;-90
2022/12/12 05:39:14;;;;;;;23.90;11.70;;;;;;;;;;5032356;28;20492;-90
2022/12/12 05:41:42;;;;;;;23.77;10.63;;;;;;;;;;5035760;28;20053;-90
2022/12/12 05:44:09;;;;;;;28.38;11.02;;;;;;;;;;5034332;28;20056;-90
2022/12/12 05:46:36;;;;;;;25.88;11.60;;;;;;;;;;5032373;28;20080;-90
2022/12/12 05:49:04;;;;;;;25.85;12.10;;;;;;;;;;5032364;28;20048;-90
2022/12/12 05:51:32;;;;;;;20.55;10.63;;;;;;;;;;5032539;28;20061;-90
2022/12/12 05:53:59;;;;;;;21.75;11.13;;;;;;;;;;5033363;28;20387;-89
2022/12/12 05:56:26;;;;;;;22.02;11.32;;;;;;;;;;5032573;28;20057;-90
2022/12/12 05:58:53;;;;;;;29.23;12.38;;;;;;;;;;5032361;28;20052;-90
2022/12/12 06:01:21;;;;;;;35.95;14.23;;;;;;;;;;5033926;28;20045;-90
2022/12/12 06:03:48;;;;;;;31.40;14.77;;;;;;;;;;5036794;28;20063;-90
2022/12/12 06:06:15;;;;;;;40.80;16.80;;;;;;;;;;5036328;28;20050;-90
2022/12/12 06:08:43;;;;;;;31.85;14.20;;;;;;;;;;5036303;28;20053;-90
2022/12/12 06:11:10;;;;;;;27.48;13.73;;;;;;;;;;5035737;28;20080;-90
2022/12/12 06:13:38;;;;;;;28.05;13.15;;;;;;;;;;5036075;28;20045;-90
2022/12/12 06:16:09;;;;;;;29.65;13.80;;;;;;;;;;5035921;28;20060;-90
2022/12/12 06:18:37;;;;;;;22.00;11.05;;;;;;;;;;5035791;28;20053;-91
2022/12/12 06:21:05;;;;;;;27.25;12.27;;;;;;;;;;5035929;28;20046;-90
2022/12/12 06:23:34;;;;;;;22.15;11.15;;;;;;;;;;5035397;28;20145;-90
2022/12/12 06:26:02;;;;;;;26.73;11.90;;;;;;;;;;5035664;28;20136;-90
2022/12/12 06:28:29;;;;;;;23.42;11.65;;;;;;;;;;5035919;28;20080;-90
2022/12/12 06:30:57;;;;;;;22.73;11.73;;;;;;;;;;5035621;28;20045;-90
2022/12/12 06:33:26;;;;;;;22.38;10.32;;;;;;;;;;5035758;28;20049;-90
2022/12/12 06:36:00;;;;;;;22.10;11.75;;;;;;;;;;5035404;28;20051;-90
2022/12/12 06:38:28;;;;;;;23.20;11.63;;;;;;;;;;5035690;28;20054;-91
2022/12/12 06:40:56;;;;;;;22.75;10.23;;;;;;;;;;5035373;28;20049;-90
2022/12/12 06:43:24;;;;;;;22.52;11.18;;;;;;;;;;5035302;28;20053;-90
2022/12/12 06:45:51;;;;;;;23.95;11.95;;;;;;;;;;5035297;28;20084;-90
2022/12/12 06:48:19;;;;;;;24.83;12.23;;;;;;;;;;5035563;28;20053;-89
2022/12/12 06:50:46;;;;;;;29.90;15.02;;;;;;;;;;5035985;28;20145;-90
2022/12/12 06:53:13;;;;;;;33.13;15.50;;;;;;;;;;5035239;28;20053;-90
2022/12/12 06:55:42;;;;;;;34.50;14.75;;;;;;;;;;5035063;28;20046;-90
2022/12/12 06:58:10;;;;;;;23.88;11.82;;;;;;;;;;5035376;28;20128;-90
2022/12/12 07:00:37;;;;;;;29.92;11.98;;;;;;;;;;5035078;28;20501;-90
2022/12/12 07:03:04;;;;;;;38.03;20.73;;;;;;;;;;5035003;28;20045;-90
2022/12/12 07:05:33;;;;;;;29.02;17.42;;;;;;;;;;5034838;28;20064;-90
2022/12/12 07:08:01;;;;;;;38.88;21.20;;;;;;;;;;5035504;28;20067;-90
2022/12/12 07:10:29;;;;;;;45.83;22.50;;;;;;;;;;5036084;28;20049;-90
2022/12/12 07:12:56;;;;;;;38.55;16.42;;;;;;;;;;5034570;28;20060;-90
2022/12/12 07:15:24;;;;;;;31.60;14.27;;;;;;;;;;5035047;28;20041;-90
2022/12/12 07:17:52;;;;;;;28.40;12.57;;;;;;;;;;5034055;28;20083;-90
2022/12/12 07:20:20;;;;;;;23.67;10.48;;;;;;;;;;5034701;28;20046;-89
2022/12/12 07:22:47;;;;;;;17.63;9.95;;;;;;;;;;5034869;28;20057;-90
2022/12/12 07:25:15;;;;;;;17.20;9.90;;;;;;;;;;5035169;28;20049;-90
2022/12/12 07:27:42;;;;;;;17.40;9.38;;;;;;;;;;5034965;28;20051;-90
2022/12/12 07:30:11;;;;;;;18.58;9.90;;;;;;;;;;5034637;28;20478;-90
2022/12/12 07:32:38;;;;;;;18.25;9.52;;;;;;;;;;5034148;28;20045;-90
2022/12/12 07:35:05;;;;;;;20.85;10.32;;;;;;;;;;5034449;28;20055;-90
2022/12/12 07:37:33;;;;;;;21.75;11.00;;;;;;;;;;5034687;28;20499;-90
2022/12/12 07:40:00;;;;;;;20.13;10.20;;;;;;;;;;5034492;28;20409;-90
2022/12/12 07:42:28;;;;;;;21.58;10.57;;;;;;;;;;5034457;28;20076;-91
2022/12/12 07:44:55;;;;;;;22.45;11.10;;;;;;;;;;5034468;28;20053;-90
2022/12/12 07:47:22;;;;;;;23.15;12.35;;;;;;;;;;5034319;28;20053;-90
2022/12/12 07:49:50;;;;;;;28.40;15.60;;;;;;;;;;5034320;28;20524;-90
2022/12/12 07:52:17;;;;;;;23.27;12.90;;;;;;;;;;5035854;28;20076;-90
2022/12/12 07:54:44;;;;;;;16.35;9.73;;;;;;;;;;5034081;28;20077;-91
2022/12/12 07:57:11;;;;;;;19.80;10.82;;;;;;;;;;5033925;28;20053;-90
2022/12/12 07:59:39;;;;;;;22.75;10.73;;;;;;;;;;5034021;28;20137;-91
2022/12/12 08:02:06;;;;;;;27.15;12.88;;;;;;;;;;5033653;28;20057;-90
2022/12/12 08:04:34;;;;;;;24.33;13.68;;;;;;;;;;5033852;28;20050;-90
2022/12/12 08:07:01;;;;;;;18.20;11.35;;;;;;;;;;5034769;28;20058;-90
2022/12/12 08:09:35;;;;;;;21.38;11.02;;;;;;;;;;5033811;28;20050;-90
2022/12/12 08:12:02;;;;;;;16.55;8.88;;;;;;;;;;5033504;28;20068;-90
2022/12/12 08:14:29;;;;;;;18.52;10.00;;;;;;;;;;5034330;28;20449;-90
2022/12/12 08:16:57;;;;;;;17.63;9.25;;;;;;;;;;5033549;28;20049;-89
2022/12/12 08:19:24;;;;;;;15.75;9.07;;;;;;;;;;5034619;28;20053;-90
2022/12/12 08:21:51;;;;;;;15.75;8.60;;;;;;;;;;5033783;28;20045;-90
2022/12/12 08:24:18;;;;;;;19.40;9.35;;;;;;;;;;5034180;28;20057;-90
2022/12/12 08:26:46;;;;;;;18.27;8.57;;;;;;;;;;5034291;28;20049;-90
2022/12/12 08:29:13;;;;;;;18.58;9.27;;;;;;;;;;5033392;28;20050;-90
2022/12/12 08:31:40;;;;;;;15.55;8.13;;;;;;;;;;5033241;28;20440;-90
2022/12/12 08:34:08;;;;;;;16.05;10.25;;;;;;;;;;5033115;28;20053;-91
2022/12/12 08:36:35;;;;;;;19.80;9.88;;;;;;;;;;5034270;28;20406;-90
2022/12/12 08:39:06;;;;;;;16.92;10.63;;;;;;;;;;5034169;28;20148;-90
2022/12/12 08:41:38;;;;;;;17.95;9.18;;;;;;;;;;5033348;28;20056;-90
2022/12/12 08:44:06;;;;;;;15.90;10.15;;;;;;;;;;5034308;28;20046;-90
2022/12/12 08:46:34;;;;;;;15.75;9.80;;;;;;;;;;5033545;28;20425;-91
2022/12/12 08:49:01;;;;;;;15.57;9.80;;;;;;;;;;5033331;28;20437;-90
2022/12/12 08:51:28;;;;;;;16.88;11.07;;;;;;;;;;5032979;28;20132;-90
2022/12/12 08:53:56;;;;;;;17.90;10.93;;;;;;;;;;5033214;28;20418;-90
2022/12/12 08:56:23;;;;;;;14.98;9.07;;;;;;;;;;5033057;28;20046;-90
2022/12/12 08:58:51;;;;;;;16.95;8.70;;;;;;;;;;5033222;28;20060;-91
2022/12/12 09:01:20;;;;;;;12.30;7.50;;;;;;;;;;5033400;28;20041;-90
2022/12/12 09:03:47;;;;;;;14.98;8.50;;;;;;;;;;5033147;28;20444;-90
2022/12/12 09:06:15;;;;;;;16.63;9.48;;;;;;;;;;5033660;28;20049;-90
2022/12/12 09:08:43;;;;;;;13.35;8.10;;;;;;;;;;5032815;28;20056;-90
2022/12/12 09:11:10;;;;;;;12.70;7.38;;;;;;;;;;5033884;28;20140;-90
2022/12/12 09:13:37;;;;;;;11.85;7.07;;;;;;;;;;5032929;28;20405;-91
2022/12/12 09:16:05;;;;;;;11.75;7.70;;;;;;;;;;5032701;28;20059;-90
2022/12/12 09:18:33;;;;;;;17.42;9.57;;;;;;;;;;5032055;28;20041;-91
2022/12/12 09:21:00;;;;;;;19.00;11.00;;;;;;;;;;5032541;28;20060;-90
2022/12/12 09:23:28;;;;;;;14.80;8.55;;;;;;;;;;5032857;28;20060;-90
2022/12/12 09:25:56;;;;;;;13.55;8.48;;;;;;;;;;5032540;28;20059;-91
2022/12/12 09:28:23;;;;;;;16.48;9.43;;;;;;;;;;5032659;28;20034;-91
2022/12/12 09:30:51;;;;;;;14.65;7.93;;;;;;;;;;5033558;28;20498;-90
2022/12/12 09:33:18;;;;;;;13.73;8.13;;;;;;;;;;5033555;28;20490;-90
2022/12/12 09:35:46;;;;;;;10.35;6.35;;;;;;;;;;5033133;28;20050;-91
2022/12/12 09:38:13;;;;;;;21.77;7.75;;;;;;;;;;5036692;28;20053;-91
2022/12/12 09:40:53;;;;;;;11.45;7.13;;;;;;;;;;5037869;28;20046;-91
2022/12/12 09:43:23;;;;;;;10.15;6.25;;;;;;;;;;5036568;28;20132;-90
2022/12/12 09:45:55;;;;;;;11.57;6.70;;;;;;;;;;5036402;28;20068;-91
2022/12/12 09:48:46;;;;;;;10.40;6.47;;;;;;;;;;5037495;28;20464;-90
2022/12/12 09:51:13;;;;;;;11.05;6.78;;;;;;;;;;5032258;28;20419;-90
2022/12/12 09:53:42;;;;;;;13.00;7.45;;;;;;;;;;5036309;28;20057;-89
2022/12/12 09:56:13;;;;;;;8.98;6.90;;;;;;;;;;5037211;28;20064;-91
2022/12/12 09:58:44;;;;;;;10.75;6.90;;;;;;;;;;5036407;28;20064;-91
2022/12/12 10:01:18;;;;;;;18.25;7.22;;;;;;;;;;5037788;28;20073;-91
2022/12/12 10:03:49;;;;;;;13.95;7.40;;;;;;;;;;5037464;28;20409;-91
2022/12/12 10:06:17;;;;;;;15.88;8.55;;;;;;;;;;5036004;28;20509;-91
2022/12/12 10:09:07;;;;;;;15.32;8.30;;;;;;;;;;5036019;28;20041;-91
2022/12/12 10:11:49;;;;;;;14.75;8.60;;;;;;;;;;5036977;28;20056;-91
2022/12/12 10:14:37;;;;;;;14.27;8.10;;;;;;;;;;5036115;28;20054;-91
2022/12/12 10:17:08;;;;;;;18.27;9.10;;;;;;;;;;5035814;28;20054;-91
2022/12/12 10:19:43;;;;;;;14.35;7.90;;;;;;;;;;5035793;28;20052;-91
2022/12/12 10:22:15;;;;;;;14.15;8.18;;;;;;;;;;5035710;28;20049;-91
2022/12/12 10:24:46;;;;;;;18.80;8.90;;;;;;;;;;5035574;28;20470;-91
2022/12/12 10:27:14;;;;;;;20.02;12.35;;;;;;;;;;5035721;28;20050;-91
2022/12/12 10:29:43;;;;;;;15.10;8.00;;;;;;;;;;5035676;28;20417;-91
2022/12/12 10:32:16;;;;;;;16.17;11.45;;;;;;;;;;5036650;28;20099;-92
2022/12/12 10:34:43;;;;;;;;;;;;;;;;;;5037179;28;20045;-91
2022/12/12 10:37:21;;;;;;;12.85;7.07;;;;;;;;;;5035993;28;19921;-91
2022/12/12 10:39:51;;;;;;;13.43;9.00;;;;;;;;;;5035326;28;20098;-91
2022/12/12 10:42:19;;;;;;;13.68;8.32;;;;;;;;;;5036476;28;20133;-90
2022/12/12 10:45:05;;;;;;;10.32;7.15;;;;;;;;;;5035433;28;20156;-91
2022/12/12 10:47:33;;;;;;;11.45;6.78;;;;;;;;;;5035056;28;20124;-91
2022/12/12 10:50:07;;;;;;;10.55;6.50;;;;;;;;;;5035449;28;20048;-90
2022/12/12 10:52:39;;;;;;;16.65;7.47;;;;;;;;;;5036360;28;20053;-91
2022/12/12 10:55:21;;;;;;;10.30;7.07;;;;;;;;;;5036259;28;20041;-91
2022/12/12 10:58:00;;;;;;;44.63;17.20;;;;;;;;;;5035092;28;20498;-91
2022/12/12 11:00:31;;;;;;;16.35;8.43;;;;;;;;;;5036235;28;20052;-91
2022/12/12 11:02:59;;;;;;;15.25;7.72;;;;;;;;;;5034898;28;20060;-91
2022/12/12 11:05:28;;;;;;;16.55;9.48;;;;;;;;;;5035249;28;20050;-91
2022/12/12 11:08:03;;;;;;;21.90;11.13;;;;;;;;;;5034667;28;20053;-91
2022/12/12 11:10:40;;;;;;;14.68;8.48;;;;;;;;;;5035208;28;20057;-90
2022/12/12 11:13:10;;;;;;;13.75;8.25;;;;;;;;;;5034898;28;20083;-91
2022/12/12 11:15:44;;;;;;;23.50;11.90;;;;;;;;;;5034973;28;20065;-91
2022/12/12 11:18:16;;;;;;;10.13;6.65;;;;;;;;;;5035229;28;20132;-91
2022/12/12 11:21:04;;;;;;;12.55;7.80;;;;;;;;;;5035625;28;20486;-91
2022/12/12 11:23:33;;;;;;;12.90;7.75;;;;;;;;;;5034635;28;20057;-91
2022/12/12 11:26:02;;;;;;;14.90;8.43;;;;;;;;;;5034499;28;20048;-91
2022/12/12 11:28:31;;;;;;;12.38;8.48;;;;;;;;;;5035717;28;20080;-91
2022/12/12 11:31:01;;;;;;;14.27;8.38;;;;;;;;;;5034408;28;20056;-91
2022/12/12 11:33:32;;;;;;;17.98;8.98;;;;;;;;;;5034621;28;20409;-91
2022/12/12 11:36:00;;;;;;;14.38;8.68;;;;;;;;;;5035169;28;20046;-91
2022/12/12 11:38:31;;;;;;;12.65;8.52;;;;;;;;;;5034463;28;20144;-91
2022/12/12 11:41:00;;;;;;;19.55;8.90;;;;;;;;;;5035435;28;20043;-91
2022/12/12 11:43:28;;;;;;;14.27;8.55;;;;;;;;;;5034616;28;20053;-91
2022/12/12 11:46:00;;;;;;;15.70;9.02;;;;;;;;;;5035117;28;20045;-91
2022/12/12 11:48:35;;;;;;;16.23;7.50;;;;;;;;;;5034224;28;20045;-91
2022/12/12 11:51:03;;;;;;;13.93;9.55;;;;;;;;;;5035048;28;20140;-91
2022/12/12 11:53:32;;;;;;;13.52;8.25;;;;;;;;;;5034101;28;20406;-91
2022/12/12 11:56:22;;;;;;;14.18;8.10;;;;;;;;;;5034025;28;20414;-90
2022/12/12 11:59:16;;;;;;;13.73;8.68;;;;;;;;;;5015290;28;20056;-91
2022/12/12 12:02:02;;;;;;;18.10;9.05;;;;;;;;;;5018921;28;20057;-91
2022/12/12 12:04:29;;;;;;;25.50;13.13;;;;;;;;;;5035329;28;20048;-91
2022/12/12 12:07:16;;;;;;;21.70;11.32;;;;;;;;;;5034975;28;20057;-91
2022/12/12 12:10:10;;;;;;;28.13;14.30;;;;;;;;;;5034202;28;20057;-91
2022/12/12 12:12:57;;;;;;;20.50;12.35;;;;;;;;;;5012395;28;20049;-91
2022/12/12 12:15:31;;;;;;;17.75;10.13;;;;;;;;;;5014345;28;20108;-91
2022/12/12 12:18:11;;;;;;;18.20;10.82;;;;;;;;;;5034739;28;20046;-91
2022/12/12 12:20:44;;;;;;;19.30;10.45;;;;;;;;;;5033882;28;20060;-90
2022/12/12 12:23:12;;;;;;;;;;;;;;;;;;5035570;28;20045;-91
2022/12/12 12:25:45;;;;;;;14.98;8.35;;;;;;;;;;5033788;28;19921;-91
2022/12/12 12:28:15;;;;;;;18.20;8.98;;;;;;;;;;5034383;28;20053;-91
2022/12/12 12:30:42;;;;;;;20.90;9.43;;;;;;;;;;5034563;28;20049;-91
2022/12/12 12:33:25;;;;;;;23.95;11.70;;;;;;;;;;5034425;28;20049;-91
2022/12/12 12:36:19;;;;;;;21.30;8.75;;;;;;;;;;5033207;28;20048;-91
2022/12/12 12:38:53;;;;;;;17.52;9.00;;;;;;;;;;5028327;28;20053;-91
2022/12/12 12:41:27;;;;;;;19.17;9.10;;;;;;;;;;5033390;28;20049;-91
2022/12/12 12:44:02;;;;;;;13.80;7.93;;;;;;;;;;5033332;28;20513;-91
2022/12/12 12:46:36;;;;;;;13.23;8.30;;;;;;;;;;5033512;28;20045;-91
2022/12/12 12:49:12;;;;;;;15.35;8.35;;;;;;;;;;5033219;28;20053;-91
2022/12/12 12:51:43;;;;;;;13.93;8.50;;;;;;;;;;5034121;28;20049;-91
2022/12/12 12:54:21;;;;;;;14.57;8.27;;;;;;;;;;5033948;28;20068;-91
2022/12/12 12:56:55;;;;;;;13.85;8.63;;;;;;;;;;5034086;28;20569;-91
2022/12/12 12:59:26;;;;;;;13.45;9.10;;;;;;;;;;5033864;28;20103;-91
2022/12/12 13:01:55;;;;;;;18.90;9.27;;;;;;;;;;5033827;28;20049;-91
2022/12/12 13:04:25;;;;;;;18.10;9.43;;;;;;;;;;5033853;28;20518;-91
2022/12/12 13:06:56;;;;;;;13.43;7.63;;;;;;;;;;5033761;28;20061;-90
2022/12/12 13:09:27;;;;;;;14.95;7.15;;;;;;;;;;5032774;28;20466;-90
2022/12/12 13:11:57;;;;;;;16.08;8.15;;;;;;;;;;5031850;28;20059;-90
2022/12/12 13:14:31;;;;;;;16.50;8.88;;;;;;;;;;5032752;28;20061;-91
2022/12/12 13:17:02;;;;;;;;;;;;;;;;;;5034280;28;20041;-91
2022/12/12 13:19:39;;;;;;;13.98;7.78;;;;;;;;;;5032993;28;19928;-90
2022/12/12 13:22:23;;;;;;;11.65;6.97;;;;;;;;;;5033928;28;20049;-91
2022/12/12 13:25:09;;;;;;;14.65;7.32;;;;;;;;;;5032720;28;20140;-91
2022/12/12 13:27:44;;;;;;;10.57;7.45;;;;;;;;;;5034078;28;20041;-91
2022/12/12 13:30:25;;;;;;;13.70;7.30;;;;;;;;;;5032917;28;20072;-90
2022/12/12 13:33:11;;;;;;;12.57;7.50;;;;;;;;;;5033499;28;20413;-90
2022/12/12 13:35:44;;;;;;;10.52;6.43;;;;;;;;;;5032740;28;20049;-91
2022/12/12 13:38:16;;;;;;;13.90;7.10;;;;;;;;;;5033910;28;20046;-90
2022/12/12 13:40:44;;;;;;;10.85;6.88;;;;;;;;;;5032695;28;20049;-91
2022/12/12 13:43:28;;;;;;;9.02;5.28;;;;;;;;;;5033497;28;20057;-91
2022/12/12 13:45:55;;;;;;;10.15;5.95;;;;;;;;;;5033420;28;20046;-90
2022/12/12 13:48:26;;;;;;;9.85;5.50;;;;;;;;;;5033376;28;20053;-90
2022/12/12 13:51:11;;;;;;;16.05;8.95;;;;;;;;;;5032347;28;20053;-91
2022/12/12 13:53:39;;;;;;;12.05;7.28;;;;;;;;;;5032993;28;20060;-91
2022/12/12 13:56:25;;;;;;;8.30;4.45;;;;;;;;;;5032398;28;20049;-90
2022/12/12 13:58:52;;;;;;;5.53;3.67;;;;;;;;;;5032398;28;20185;-91
2022/12/12 14:01:31;;;;;;;7.20;3.92;;;;;;;;;;5032493;28;20061;-91
2022/12/12 14:03:58;;;;;;;5.10;4.13;;;;;;;;;;5032815;28;20050;-90
2022/12/12 14:06:28;;;;;;;6.70;4.40;;;;;;;;;;5032196;28;20386;-90
2022/12/12 14:08:56;;;;;;;5.32;3.75;;;;;;;;;;5032419;28;20428;-90
2022/12/12 14:11:26;;;;;;;6.25;4.55;;;;;;;;;;5033535;28;20502;-90
2022/12/12 14:14:13;;;;;;;4.78;3.75;;;;;;;;;;5032634;28;20581;-90
2022/12/12 14:16:41;;;;;;;6.85;4.53;;;;;;;;;;5025331;28;20493;-90
2022/12/12 14:19:20;;;;;;;7.28;4.93;;;;;;;;;;5032815;28;20504;-90
2022/12/12 14:21:48;;;;;;;8.13;6.03;;;;;;;;;;5033514;28;20052;-90
2022/12/12 14:24:34;;;;;;;8.95;5.97;;;;;;;;;;5038251;28;20057;-90
2022/12/12 14:27:05;;;;;;;7.15;5.43;;;;;;;;;;5037044;28;20148;-89
2022/12/12 14:29:42;;;;;;;10.82;5.93;;;;;;;;;;5035900;28;20049;-90
2022/12/12 14:32:12;;;;;;;9.50;5.50;;;;;;;;;;5036805;28;20046;-90
2022/12/12 14:34:43;;;;;;;9.02;4.82;;;;;;;;;;5035676;28;20053;-90
2022/12/12 14:37:19;;;;;;;10.13;5.88;;;;;;;;;;5036547;28;20387;-89
2022/12/12 14:40:05;;;;;;;9.10;5.47;;;;;;;;;;5035460;28;20413;-90
2022/12/12 14:42:52;;;;;;;9.32;5.45;;;;;;;;;;5035432;28;20053;-90
2022/12/12 14:45:48;;;;;;;9.35;4.95;;;;;;;;;;5035286;28;20536;-90
2022/12/12 14:48:16;;;;;;;8.00;5.78;;;;;;;;;;5035090;28;20061;-90
2022/12/12 14:50:48;;;;;;;13.77;6.85;;;;;;;;;;5036191;28;20494;-90
2022/12/12 14:53:20;;;;;;;11.98;7.57;;;;;;;;;;5035587;28;20132;-90
2022/12/12 14:55:49;;;;;;;11.60;6.65;;;;;;;;;;5036327;28;20049;-89
2022/12/12 14:58:25;;;;;;;17.40;8.75;;;;;;;;;;5035018;28;20498;-90
2022/12/12 15:00:54;;;;;;;72.53;23.52;;;;;;;;;;5035111;28;20060;-90
2022/12/12 15:03:27;;;;;;;52.75;19.33;;;;;;;;;;5035005;28;20045;-89